This is the latest recevied weather packets stored in our database for station/object PTG2-WX. If no packets are shown the sender has not sent any weather packets the latest 10 day(s).
| Time | Temp. | Humidity | Pressure | Rain* | Wind** | Luminosity | Snow |
|---|---|---|---|---|---|---|---|
| 1788610634 | 26.67° C | 41% | 1015.7 hPa | - | - | - | - |
| 1788607036 | 26.67° C | 46% | 1015.1 hPa | - | - | - | - |
| 1788603434 | 26.11° C | 51% | 1015.4 hPa | - | - | - | - |
| 1788599929 | 23.89° C | 63% | 1015.8 hPa | - | - | - | - |
| 1788596234 | 22.22° C | 71% | 1016.1 hPa | - | - | - | - |
| 1788592634 | 21.67° C | 73% | 1016.5 hPa | - | - | - | - |
| 1788589034 | 20.56° C | 78% | 1016.8 hPa | - | - | - | - |
| 1788585433 | 18.89° C | 87% | 1017.2 hPa | - | - | - | - |
| 1788584634 | 18.33° C | 89% | 1017.2 hPa | - | - | - | - |
| 1788581834 | 17.78° C | 92% | 1016.8 hPa | - | - | - | - |
| 1788578234 | 17.22° C | 93% | 1016.8 hPa | - | - | - | - |
| 1788574635 | 16.67° C | 94% | 1015.8 hPa | - | - | - | - |
| 1788571063 | 16.11° C | 95% | 1015.4 hPa | - | - | - | - |
| 1788567434 | 16.67° C | 94% | 1014.7 hPa | - | - | - | - |
| 1788563834 | 17.22° C | 93% | 1014.4 hPa | - | - | - | - |
| 1788560267 | 17.78° C | 89% | 1014.7 hPa | - | - | - | - |
| 1788556634 | 19.44° C | 80% | 1014.2 hPa | - | - | - | - |
| 1788553062 | 18.89° C | 79% | 1014.1 hPa | - | - | - | - |
| 1788549434 | 18.89° C | 75% | 1013.9 hPa | - | - | - | - |
| 1788545834 | 19.44° C | 69% | 1013.5 hPa | - | - | - | - |
| 1788542235 | 21.67° C | 64% | 1013.6 hPa | - | - | - | - |
| 1788538635 | 22.22° C | 62% | 1012.7 hPa | - | - | - | - |
| 1788535035 | 23.33° C | 57% | 1012.8 hPa | - | - | - | - |
| 1788531434 | 25.56° C | 45% | 1012.2 hPa | - | - | - | - |
| 1788527833 | 26.67° C | 39% | 1011.6 hPa | - | - | - | - |
* Rain since midnight (hover to see other rain measurements)
** Current wind speed in m/s (hover to see current wind gust speed)